sensor_id;sensor_type;location;lat;lon;timestamp;pressure;altitude;pressure_sealevel;temperature;humidity
78582;BME280;67878;46.242;5.974;2023-09-18T00:00:53;95026.09;;;25.49;52.84
78582;BME280;67878;46.242;5.974;2023-09-18T00:03:20;95040.13;;;25.50;52.90
78582;BME280;67878;46.242;5.974;2023-09-18T00:05:46;95046.44;;;25.49;53.00
78582;BME280;67878;46.242;5.974;2023-09-18T00:08:15;95050.09;;;25.48;52.77
78582;BME280;67878;46.242;5.974;2023-09-18T00:10:42;95059.84;;;25.47;52.65
78582;BME280;67878;46.242;5.974;2023-09-18T00:13:07;95067.78;;;25.47;52.80
78582;BME280;67878;46.242;5.974;2023-09-18T00:15:33;95059.84;;;25.47;52.96
78582;BME280;67878;46.242;5.974;2023-09-18T00:17:58;95053.75;;;25.47;52.79
78582;BME280;67878;46.242;5.974;2023-09-18T00:20:24;95060.88;;;25.46;52.89
78582;BME280;67878;46.242;5.974;2023-09-18T00:22:53;95024.91;;;25.45;53.01
78582;BME280;67878;46.242;5.974;2023-09-18T00:25:19;95017.97;;;25.44;52.83
78582;BME280;67878;46.242;5.974;2023-09-18T00:27:45;95043.41;;;25.45;52.92
78582;BME280;67878;46.242;5.974;2023-09-18T00:30:10;95033.03;;;25.44;52.74
78582;BME280;67878;46.242;5.974;2023-09-18T00:32:36;95039.13;;;25.44;52.73
78582;BME280;67878;46.242;5.974;2023-09-18T00:35:02;95039.34;;;25.43;52.98
78582;BME280;67878;46.242;5.974;2023-09-18T00:37:28;95034.06;;;25.43;52.66
78582;BME280;67878;46.242;5.974;2023-09-18T00:39:54;95031.41;;;25.43;52.56
78582;BME280;67878;46.242;5.974;2023-09-18T00:42:19;95027.13;;;25.42;52.67
78582;BME280;67878;46.242;5.974;2023-09-18T00:44:46;95022.88;;;25.41;52.60
78582;BME280;67878;46.242;5.974;2023-09-18T00:47:13;95036.88;;;25.41;52.83
78582;BME280;67878;46.242;5.974;2023-09-18T00:49:40;95043.22;;;25.40;53.07
78582;BME280;67878;46.242;5.974;2023-09-18T00:52:07;95040.34;;;25.42;52.82
78582;BME280;67878;46.242;5.974;2023-09-18T00:54:34;95017.56;;;25.41;52.72
78582;BME280;67878;46.242;5.974;2023-09-18T00:57:02;95007.00;;;25.41;52.67
78582;BME280;67878;46.242;5.974;2023-09-18T00:59:28;94998.25;;;25.40;52.79
78582;BME280;67878;46.242;5.974;2023-09-18T01:01:54;95006.19;;;25.40;52.67
78582;BME280;67878;46.242;5.974;2023-09-18T01:04:19;95010.69;;;25.40;52.94
78582;BME280;67878;46.242;5.974;2023-09-18T01:06:45;95002.75;;;25.40;52.61
78582;BME280;67878;46.242;5.974;2023-09-18T01:09:11;95014.31;;;25.39;52.85
78582;BME280;67878;46.242;5.974;2023-09-18T01:14:17;94998.47;;;25.39;52.81
78582;BME280;67878;46.242;5.974;2023-09-18T01:16:50;95019.59;;;25.39;52.67
78582;BME280;67878;46.242;5.974;2023-09-18T01:19:16;95005.59;;;25.38;52.75
78582;BME280;67878;46.242;5.974;2023-09-18T01:21:45;95009.03;;;25.39;52.76
78582;BME280;67878;46.242;5.974;2023-09-18T01:24:10;94999.50;;;25.38;52.54
78582;BME280;67878;46.242;5.974;2023-09-18T01:26:36;95004.78;;;25.38;52.52
78582;BME280;67878;46.242;5.974;2023-09-18T01:29:01;94995.19;;;25.37;52.49
78582;BME280;67878;46.242;5.974;2023-09-18T01:31:27;95006.63;;;25.37;52.61
78582;BME280;67878;46.242;5.974;2023-09-18T01:33:53;95018.00;;;25.38;52.58
78582;BME280;67878;46.242;5.974;2023-09-18T01:36:20;95022.47;;;25.37;52.72
78582;BME280;67878;46.242;5.974;2023-09-18T01:38:46;95036.50;;;25.38;52.76
78582;BME280;67878;46.242;5.974;2023-09-18T01:41:14;95039.94;;;25.38;52.54
78582;BME280;67878;46.242;5.974;2023-09-18T01:43:39;95045.03;;;25.40;52.54
78582;BME280;67878;46.242;5.974;2023-09-18T01:46:05;95046.66;;;25.41;52.61
78582;BME280;67878;46.242;5.974;2023-09-18T01:48:30;95046.66;;;25.41;52.62
78582;BME280;67878;46.242;5.974;2023-09-18T01:50:56;95043.22;;;25.40;52.70
78582;BME280;67878;46.242;5.974;2023-09-18T01:53:22;95037.13;;;25.40;52.51
78582;BME280;67878;46.242;5.974;2023-09-18T01:55:47;95031.00;;;25.39;52.74
78582;BME280;67878;46.242;5.974;2023-09-18T01:58:13;95024.91;;;25.39;52.62
78582;BME280;67878;46.242;5.974;2023-09-18T02:00:39;95034.66;;;25.38;52.93
78582;BME280;67878;46.242;5.974;2023-09-18T02:03:05;95024.91;;;25.39;53.01
78582;BME280;67878;46.242;5.974;2023-09-18T02:05:30;95020.63;;;25.38;52.60
78582;BME280;67878;46.242;5.974;2023-09-18T02:07:56;95020.41;;;25.39;52.57
78582;BME280;67878;46.242;5.974;2023-09-18T02:10:21;95020.22;;;25.41;52.49
78582;BME280;67878;46.242;5.974;2023-09-18T02:12:47;95007.00;;;25.41;52.62
78582;BME280;67878;46.242;5.974;2023-09-18T02:15:12;95025.69;;;25.39;52.80
78582;BME280;67878;46.242;5.974;2023-09-18T02:17:38;95010.88;;;25.38;52.71
78582;BME280;67878;46.242;5.974;2023-09-18T02:20:04;95013.50;;;25.38;52.90
78582;BME280;67878;46.242;5.974;2023-09-18T02:22:37;95012.72;;;25.38;52.62
78582;BME280;67878;46.242;5.974;2023-09-18T02:25:04;95017.19;;;25.37;52.93
78582;BME280;67878;46.242;5.974;2023-09-18T02:27:29;95014.53;;;25.37;53.02
78582;BME280;67878;46.242;5.974;2023-09-18T02:29:55;95009.25;;;25.37;52.74
78582;BME280;67878;46.242;5.974;2023-09-18T02:32:20;95013.72;;;25.37;52.97
78582;BME280;67878;46.242;5.974;2023-09-18T02:34:46;95018.19;;;25.36;52.91
78582;BME280;67878;46.242;5.974;2023-09-18T02:37:11;95014.75;;;25.36;52.79
78582;BME280;67878;46.242;5.974;2023-09-18T02:39:36;95027.94;;;25.36;52.78
78582;BME280;67878;46.242;5.974;2023-09-18T02:42:02;95022.66;;;25.36;53.00
78582;BME280;67878;46.242;5.974;2023-09-18T02:44:27;95025.31;;;25.36;52.76
78582;BME280;67878;46.242;5.974;2023-09-18T02:46:53;95024.50;;;25.35;52.91
78582;BME280;67878;46.242;5.974;2023-09-18T02:49:18;95020.25;;;25.34;52.76
78582;BME280;67878;46.242;5.974;2023-09-18T02:51:44;95025.53;;;25.34;52.70
78582;BME280;67878;46.242;5.974;2023-09-18T02:54:09;95030.81;;;25.34;52.79
78582;BME280;67878;46.242;5.974;2023-09-18T02:56:34;95022.88;;;25.34;52.77
78582;BME280;67878;46.242;5.974;2023-09-18T02:59:00;95025.72;;;25.33;53.04
78582;BME280;67878;46.242;5.974;2023-09-18T03:01:25;95026.53;;;25.33;52.89
78582;BME280;67878;46.242;5.974;2023-09-18T03:03:51;95019.41;;;25.34;52.68
78582;BME280;67878;46.242;5.974;2023-09-18T03:06:16;95025.72;;;25.33;52.84
78582;BME280;67878;46.242;5.974;2023-09-18T03:08:42;95013.53;;;25.32;52.93
78582;BME280;67878;46.242;5.974;2023-09-18T03:11:12;95006.59;;;25.31;52.83
78582;BME280;67878;46.242;5.974;2023-09-18T03:13:45;95014.53;;;25.31;53.02
78582;BME280;67878;46.242;5.974;2023-09-18T03:16:11;95028.56;;;25.31;53.17
78582;BME280;67878;46.242;5.974;2023-09-18T03:18:37;95028.56;;;25.31;53.15
78582;BME280;67878;46.242;5.974;2023-09-18T03:21:03;95016.38;;;25.30;52.95
78582;BME280;67878;46.242;5.974;2023-09-18T03:23:28;95015.56;;;25.30;53.22
78582;BME280;67878;46.242;5.974;2023-09-18T03:25:53;95008.66;;;25.29;52.94
78582;BME280;67878;46.242;5.974;2023-09-18T03:28:19;95012.13;;;25.29;52.82
78582;BME280;67878;46.242;5.974;2023-09-18T03:30:44;95024.53;;;25.29;52.72
78582;BME280;67878;46.242;5.974;2023-09-18T03:33:10;95014.16;;;25.27;53.08
78582;BME280;67878;46.242;5.974;2023-09-18T03:35:48;95004.38;;;25.27;52.87
78582;BME280;67878;46.242;5.974;2023-09-18T03:38:14;95027.34;;;25.27;52.99
78582;BME280;67878;46.242;5.974;2023-09-18T03:40:40;95039.75;;;25.26;52.89
78582;BME280;67878;46.242;5.974;2023-09-18T03:43:06;95058.25;;;25.26;53.05
78582;BME280;67878;46.242;5.974;2023-09-18T03:45:32;95043.41;;;25.25;52.94
78582;BME280;67878;46.242;5.974;2023-09-18T03:47:58;95052.19;;;25.26;52.91
78582;BME280;67878;46.242;5.974;2023-09-18T03:50:23;95067.00;;;25.27;52.99
78582;BME280;67878;46.242;5.974;2023-09-18T03:52:48;95018.00;;;25.24;52.89
78582;BME280;67878;46.242;5.974;2023-09-18T03:55:14;94965.16;;;25.24;52.99
78582;BME280;67878;46.242;5.974;2023-09-18T03:57:39;94954.56;;;25.24;52.92
78582;BME280;67878;46.242;5.974;2023-09-18T04:00:06;94965.16;;;25.24;52.97
78582;BME280;67878;46.242;5.974;2023-09-18T04:02:33;94957.44;;;25.23;53.19
78582;BME280;67878;46.242;5.974;2023-09-18T04:04:58;94960.91;;;25.23;52.99
78582;BME280;67878;46.242;5.974;2023-09-18T04:07:24;94977.75;;;25.22;52.94
78582;BME280;67878;46.242;5.974;2023-09-18T04:09:49;94957.44;;;25.23;53.22
78582;BME280;67878;46.242;5.974;2023-09-18T04:12:14;94945.22;;;25.22;53.00
78582;BME280;67878;46.242;5.974;2023-09-18T04:14:40;94971.66;;;25.22;53.14
78582;BME280;67878;46.242;5.974;2023-09-18T04:17:06;94966.38;;;25.22;52.95
78582;BME280;67878;46.242;5.974;2023-09-18T04:19:31;94941.78;;;25.21;52.71
78582;BME280;67878;46.242;5.974;2023-09-18T04:21:57;94932.00;;;25.22;53.20
78582;BME280;67878;46.242;5.974;2023-09-18T04:24:22;94945.22;;;25.22;53.00
78582;BME280;67878;46.242;5.974;2023-09-18T04:26:49;94945.44;;;25.20;52.90
78582;BME280;67878;46.242;5.974;2023-09-18T04:29:16;94966.59;;;25.20;53.00
78582;BME280;67878;46.242;5.974;2023-09-18T04:31:41;94990.38;;;25.20;52.90
78582;BME280;67878;46.242;5.974;2023-09-18T04:34:07;95030.81;;;25.21;52.95
78582;BME280;67878;46.242;5.974;2023-09-18T04:36:32;94982.44;;;25.20;52.95
78582;BME280;67878;46.242;5.974;2023-09-18T04:38:58;94991.19;;;25.21;52.79
78582;BME280;67878;46.242;5.974;2023-09-18T04:41:23;94977.16;;;25.20;53.09
78582;BME280;67878;46.242;5.974;2023-09-18T04:43:48;94988.53;;;25.21;52.79
78582;BME280;67878;46.242;5.974;2023-09-18T04:46:14;94984.25;;;25.20;52.86
78582;BME280;67878;46.242;5.974;2023-09-18T04:48:39;94941.16;;;25.19;52.84
78582;BME280;67878;46.242;5.974;2023-09-18T04:51:05;94957.03;;;25.19;52.84
78582;BME280;67878;46.242;5.974;2023-09-18T04:53:31;94924.50;;;25.19;53.10
78582;BME280;67878;46.242;5.974;2023-09-18T04:55:57;94931.63;;;25.18;52.94
78582;BME280;67878;46.242;5.974;2023-09-18T04:58:23;94950.94;;;25.19;52.86
78582;BME280;67878;46.242;5.974;2023-09-18T05:00:58;94969.44;;;25.19;52.90
78582;BME280;67878;46.242;5.974;2023-09-18T05:03:24;94990.56;;;25.19;52.82
78582;BME280;67878;46.242;5.974;2023-09-18T05:05:50;95007.22;;;25.19;53.02
78582;BME280;67878;46.242;5.974;2023-09-18T05:08:16;95010.50;;;25.21;52.84
78582;BME280;67878;46.242;5.974;2023-09-18T05:10:41;95015.59;;;25.23;52.78
78582;BME280;67878;46.242;5.974;2023-09-18T05:13:07;95022.47;;;25.24;52.81
78582;BME280;67878;46.242;5.974;2023-09-18T05:15:34;95033.06;;;25.24;53.04
78582;BME280;67878;46.242;5.974;2023-09-18T05:18:00;95042.19;;;25.21;52.78
78582;BME280;67878;46.242;5.974;2023-09-18T05:20:29;95039.56;;;25.21;52.63
78582;BME280;67878;46.242;5.974;2023-09-18T05:22:55;95018.41;;;25.21;52.99
78582;BME280;67878;46.242;5.974;2023-09-18T05:25:22;95016.59;;;25.22;52.82
78582;BME280;67878;46.242;5.974;2023-09-18T05:27:49;94990.16;;;25.22;52.62
78582;BME280;67878;46.242;5.974;2023-09-18T05:30:24;95027.38;;;25.20;52.61
78582;BME280;67878;46.242;5.974;2023-09-18T05:32:50;95030.81;;;25.21;52.76
78582;BME280;67878;46.242;5.974;2023-09-18T05:35:17;95063.34;;;25.21;53.14
78582;BME280;67878;46.242;5.974;2023-09-18T05:37:43;95086.31;;;25.21;52.71
78582;BME280;67878;46.242;5.974;2023-09-18T05:40:10;95099.53;;;25.21;52.85
78582;BME280;67878;46.242;5.974;2023-09-18T05:42:37;95091.63;;;25.21;52.87
78582;BME280;67878;46.242;5.974;2023-09-18T05:45:03;95095.06;;;25.21;52.73
78582;BME280;67878;46.242;5.974;2023-09-18T05:47:41;95094.25;;;25.21;52.83
78582;BME280;67878;46.242;5.974;2023-09-18T05:50:11;95099.31;;;25.22;52.94
78582;BME280;67878;46.242;5.974;2023-09-18T05:52:45;95087.13;;;25.21;52.90
78582;BME280;67878;46.242;5.974;2023-09-18T05:55:11;95081.03;;;25.21;52.76
78582;BME280;67878;46.242;5.974;2023-09-18T05:57:37;95088.97;;;25.21;52.98
78582;BME280;67878;46.242;5.974;2023-09-18T06:00:03;95118.03;;;25.21;52.71
78582;BME280;67878;46.242;5.974;2023-09-18T06:02:30;95156.03;;;25.20;53.23
78582;BME280;67878;46.242;5.974;2023-09-18T06:04:56;95148.94;;;25.20;53.16
78582;BME280;67878;46.242;5.974;2023-09-18T06:07:24;95142.81;;;25.20;53.09
78582;BME280;67878;46.242;5.974;2023-09-18T06:09:50;95136.72;;;25.19;53.16
78582;BME280;67878;46.242;5.974;2023-09-18T06:12:15;95124.53;;;25.18;53.06
78582;BME280;67878;46.242;5.974;2023-09-18T06:14:41;95116.63;;;25.18;53.16
78582;BME280;67878;46.242;5.974;2023-09-18T06:17:08;95093.84;;;25.17;53.06
78582;BME280;67878;46.242;5.974;2023-09-18T06:19:35;95104.44;;;25.17;52.93
78582;BME280;67878;46.242;5.974;2023-09-18T06:22:00;95099.94;;;25.18;53.20
78582;BME280;67878;46.242;5.974;2023-09-18T06:24:26;95098.13;;;25.18;52.97
78582;BME280;67878;46.242;5.974;2023-09-18T06:26:51;95107.06;;;25.17;53.47
78582;BME280;67878;46.242;5.974;2023-09-18T06:29:18;95116.63;;;25.18;53.44
78582;BME280;67878;46.242;5.974;2023-09-18T06:31:44;95126.97;;;25.20;53.37
78582;BME280;67878;46.242;5.974;2023-09-18T06:34:09;95114.59;;;25.20;53.59
78582;BME280;67878;46.242;5.974;2023-09-18T06:36:34;95133.09;;;25.20;53.48
78582;BME280;67878;46.242;5.974;2023-09-18T06:39:00;95151.59;;;25.20;53.82
78582;BME280;67878;46.242;5.974;2023-09-18T06:41:25;95163.16;;;25.19;53.84
78582;BME280;67878;46.242;5.974;2023-09-18T06:43:51;95173.72;;;25.19;53.89
78582;BME280;67878;46.242;5.974;2023-09-18T06:46:17;95155.44;;;25.18;53.86
78582;BME280;67878;46.242;5.974;2023-09-18T06:48:42;95159.91;;;25.17;53.96
78582;BME280;67878;46.242;5.974;2023-09-18T06:51:14;95169.66;;;25.17;54.09
78582;BME280;67878;46.242;5.974;2023-09-18T06:53:39;95188.16;;;25.17;54.21
78582;BME280;67878;46.242;5.974;2023-09-18T06:56:05;95179.41;;;25.16;54.33
78582;BME280;67878;46.242;5.974;2023-09-18T06:58:31;95171.50;;;25.16;54.21
78582;BME280;67878;46.242;5.974;2023-09-18T07:00:56;95164.59;;;25.15;54.13
78582;BME280;67878;46.242;5.974;2023-09-18T07:03:23;95169.06;;;25.15;54.54
78582;BME280;67878;46.242;5.974;2023-09-18T07:05:49;95180.44;;;25.15;54.28
78582;BME280;67878;46.242;5.974;2023-09-18T07:08:14;95180.59;;;25.14;54.49
78582;BME280;67878;46.242;5.974;2023-09-18T07:10:41;95176.16;;;25.14;54.19
78582;BME280;67878;46.242;5.974;2023-09-18T07:13:06;95177.00;;;25.15;54.41
78582;BME280;67878;46.242;5.974;2023-09-18T07:15:32;95190.38;;;25.13;54.32
78582;BME280;67878;46.242;5.974;2023-09-18T07:17:57;95223.91;;;25.13;54.38
78582;BME280;67878;46.242;5.974;2023-09-18T07:20:23;95221.25;;;25.13;54.24
78582;BME280;67878;46.242;5.974;2023-09-18T07:22:49;95211.50;;;25.13;54.48
78582;BME280;67878;46.242;5.974;2023-09-18T07:25:16;95222.28;;;25.12;54.62
78582;BME280;67878;46.242;5.974;2023-09-18T07:27:41;95231.03;;;25.12;54.37
78582;BME280;67878;46.242;5.974;2023-09-18T07:30:13;95232.84;;;25.12;54.71
78582;BME280;67878;46.242;5.974;2023-09-18T07:32:42;95235.50;;;25.12;54.23
78582;BME280;67878;46.242;5.974;2023-09-18T07:35:08;95234.66;;;25.11;54.52
78582;BME280;67878;46.242;5.974;2023-09-18T07:37:34;95235.69;;;25.10;54.61
78582;BME280;67878;46.242;5.974;2023-09-18T07:40:05;95246.25;;;25.10;54.64
78582;BME280;67878;46.242;5.974;2023-09-18T07:42:30;95230.41;;;25.10;54.51
78582;BME280;67878;46.242;5.974;2023-09-18T07:44:56;95205.81;;;25.10;54.70
78582;BME280;67878;46.242;5.974;2023-09-18T07:47:22;95189.97;;;25.10;54.42
78582;BME280;67878;46.242;5.974;2023-09-18T07:49:48;95199.72;;;25.09;54.41
78582;BME280;67878;46.242;5.974;2023-09-18T07:52:14;95214.72;;;25.09;54.30
78582;BME280;67878;46.242;5.974;2023-09-18T07:54:40;95220.84;;;25.09;54.34
78582;BME280;67878;46.242;5.974;2023-09-18T07:57:06;95218.22;;;25.09;54.66
78582;BME280;67878;46.242;5.974;2023-09-18T07:59:37;95197.06;;;25.09;54.34
78582;BME280;67878;46.242;5.974;2023-09-18T08:02:04;95180.59;;;25.07;54.65
78582;BME280;67878;46.242;5.974;2023-09-18T08:04:33;95186.69;;;25.08;54.42
78582;BME280;67878;46.242;5.974;2023-09-18T08:06:59;95177.97;;;25.07;54.38
78582;BME280;67878;46.242;5.974;2023-09-18T08:09:25;95186.69;;;25.08;54.45
78582;BME280;67878;46.242;5.974;2023-09-18T08:11:51;95205.19;;;25.08;54.57
78582;BME280;67878;46.242;5.974;2023-09-18T08:14:20;95235.28;;;25.07;54.59
78582;BME280;67878;46.242;5.974;2023-09-18T08:16:46;95254.78;;;25.05;54.50
78582;BME280;67878;46.242;5.974;2023-09-18T08:19:15;95268.81;;;25.06;54.50
78582;BME280;67878;46.242;5.974;2023-09-18T08:21:42;95273.09;;;25.07;54.40
78582;BME280;67878;46.242;5.974;2023-09-18T08:24:07;95282.03;;;25.06;54.26
78582;BME280;67878;46.242;5.974;2023-09-18T08:26:33;95282.03;;;25.06;54.28
78582;BME280;67878;46.242;5.974;2023-09-18T08:28:58;95288.13;;;25.07;54.21
78582;BME280;67878;46.242;5.974;2023-09-18T08:31:23;95292.59;;;25.06;54.26
78582;BME280;67878;46.242;5.974;2023-09-18T08:33:49;95303.97;;;25.07;54.46
78582;BME280;67878;46.242;5.974;2023-09-18T08:36:16;95260.69;;;25.08;54.28
78582;BME280;67878;46.242;5.974;2023-09-18T08:38:41;95260.69;;;25.08;54.23
78582;BME280;67878;46.242;5.974;2023-09-18T08:41:10;95251.94;;;25.07;54.15
78582;BME280;67878;46.242;5.974;2023-09-18T08:43:37;95238.72;;;25.07;54.19
78582;BME280;67878;46.242;5.974;2023-09-18T08:46:11;95206.22;;;25.07;54.10
78582;BME280;67878;46.242;5.974;2023-09-18T08:48:38;95173.69;;;25.06;54.23
78582;BME280;67878;46.242;5.974;2023-09-18T08:51:06;95147.28;;;25.06;54.39
78582;BME280;67878;46.242;5.974;2023-09-18T08:53:33;95125.28;;;25.05;54.25
78582;BME280;67878;46.242;5.974;2023-09-18T08:55:59;95113.91;;;25.05;54.08
78582;BME280;67878;46.242;5.974;2023-09-18T08:58:27;95120.22;;;25.04;54.33
78582;BME280;67878;46.242;5.974;2023-09-18T09:00:53;95117.59;;;25.04;54.31
78582;BME280;67878;46.242;5.974;2023-09-18T09:03:18;95129.16;;;25.03;54.42
78582;BME280;67878;46.242;5.974;2023-09-18T09:05:44;95182.00;;;25.03;54.35
78582;BME280;67878;46.242;5.974;2023-09-18T09:08:09;95205.78;;;25.03;54.23
78582;BME280;67878;46.242;5.974;2023-09-18T09:10:35;95223.47;;;25.02;54.35
78582;BME280;67878;46.242;5.974;2023-09-18T09:13:01;95244.59;;;25.02;54.37
78582;BME280;67878;46.242;5.974;2023-09-18T09:15:47;95234.84;;;25.03;54.45
78582;BME280;67878;46.242;5.974;2023-09-18T09:18:13;95249.88;;;25.02;54.30
78582;BME280;67878;46.242;5.974;2023-09-18T09:20:59;95263.09;;;25.02;54.27
78582;BME280;67878;46.242;5.974;2023-09-18T09:23:30;95266.53;;;25.03;54.49
78582;BME280;67878;46.242;5.974;2023-09-18T09:26:15;95257.81;;;25.02;54.18
78582;BME280;67878;46.242;5.974;2023-09-18T09:28:41;95246.44;;;25.02;54.17
78582;BME280;67878;46.242;5.974;2023-09-18T09:31:08;95249.06;;;25.02;54.19
78582;BME280;67878;46.242;5.974;2023-09-18T09:33:36;95255.16;;;25.02;54.10
78582;BME280;67878;46.242;5.974;2023-09-18T09:36:05;95273.66;;;25.02;54.19
78582;BME280;67878;46.242;5.974;2023-09-18T09:38:32;95250.09;;;25.01;54.28
78582;BME280;67878;46.242;5.974;2023-09-18T09:41:02;95219.19;;;25.01;54.20
78582;BME280;67878;46.242;5.974;2023-09-18T09:43:30;95200.72;;;25.01;54.05
78582;BME280;67878;46.242;5.974;2023-09-18T09:45:57;95214.94;;;25.00;54.23
78582;BME280;67878;46.242;5.974;2023-09-18T09:48:24;95230.78;;;25.00;54.11
78582;BME280;67878;46.242;5.974;2023-09-18T09:50:58;95259.84;;;25.00;54.32
78582;BME280;67878;46.242;5.974;2023-09-18T09:53:46;95263.50;;;24.99;53.95
78582;BME280;67878;46.242;5.974;2023-09-18T09:56:18;95269.81;;;24.98;53.91
78582;BME280;67878;46.242;5.974;2023-09-18T09:58:44;95269.00;;;24.98;54.45
78582;BME280;67878;46.242;5.974;2023-09-18T10:01:12;95232.19;;;24.96;54.25
78582;BME280;67878;46.242;5.974;2023-09-18T10:03:44;95269.97;;;24.97;54.02
78582;BME280;67878;46.242;5.974;2023-09-18T10:06:10;95273.66;;;24.96;54.11
78582;BME280;67878;46.242;5.974;2023-09-18T10:08:40;95295.59;;;24.96;54.25
78582;BME280;67878;46.242;5.974;2023-09-18T10:11:07;95307.19;;;24.95;54.33
78582;BME280;67878;46.242;5.974;2023-09-18T10:13:53;95326.50;;;24.96;54.02
78582;BME280;67878;46.242;5.974;2023-09-18T10:16:25;95313.28;;;24.96;54.18
78582;BME280;67878;46.242;5.974;2023-09-18T10:19:20;95279.97;;;24.95;54.23
78582;BME280;67878;46.242;5.974;2023-09-18T10:24:41;95271.19;;;24.94;54.14
78582;BME280;67878;46.242;5.974;2023-09-18T10:27:12;95257.97;;;24.94;54.22
78582;BME280;67878;46.242;5.974;2023-09-18T10:29:40;95243.97;;;24.94;54.11
78582;BME280;67878;46.242;5.974;2023-09-18T10:32:07;95246.59;;;24.94;54.05
78582;BME280;67878;46.242;5.974;2023-09-18T10:34:34;95258.81;;;24.95;54.23
78582;BME280;67878;46.242;5.974;2023-09-18T10:37:01;95271.19;;;24.94;54.28
78582;BME280;67878;46.242;5.974;2023-09-18T10:39:30;95258.81;;;24.95;54.12
78582;BME280;67878;46.242;5.974;2023-09-18T10:41:58;95270.19;;;24.95;54.06
78582;BME280;67878;46.242;5.974;2023-09-18T10:44:28;95285.03;;;24.96;54.01
78582;BME280;67878;46.242;5.974;2023-09-18T10:46:53;95264.69;;;24.97;53.88
78582;BME280;67878;46.242;5.974;2023-09-18T10:49:20;95243.56;;;24.97;54.17
78582;BME280;67878;46.242;5.974;2023-09-18T10:51:46;95248.66;;;24.98;54.30
78582;BME280;67878;46.242;5.974;2023-09-18T10:54:16;95287.47;;;24.98;54.04
78582;BME280;67878;46.242;5.974;2023-09-18T10:56:45;95318.16;;;24.99;54.07
78582;BME280;67878;46.242;5.974;2023-09-18T10:59:10;95317.97;;;25.00;53.94
78582;BME280;67878;46.242;5.974;2023-09-18T11:01:36;95287.09;;;25.01;53.96
78582;BME280;67878;46.242;5.974;2023-09-18T11:04:04;95258.84;;;25.01;54.34
78582;BME280;67878;46.242;5.974;2023-09-18T11:09:32;95274.47;;;25.03;54.34
78582;BME280;67878;46.242;5.974;2023-09-18T11:12:05;95279.75;;;25.03;54.38
78582;BME280;67878;46.242;5.974;2023-09-18T11:22:49;95289.53;;;25.02;54.88
78582;BME280;67878;46.242;5.974;2023-09-18T11:25:35;95274.47;;;25.03;54.82
78582;BME280;67878;46.242;5.974;2023-09-18T11:28:02;95269.19;;;25.03;54.59
78582;BME280;67878;46.242;5.974;2023-09-18T11:30:28;95250.50;;;25.04;54.81
78582;BME280;67878;46.242;5.974;2023-09-18T11:32:55;95237.31;;;25.04;54.70
78582;BME280;67878;46.242;5.974;2023-09-18T11:35:21;95222.25;;;25.05;54.76
78582;BME280;67878;46.242;5.974;2023-09-18T11:37:47;95226.53;;;25.06;54.79
78582;BME280;67878;46.242;5.974;2023-09-18T11:40:32;95222.88;;;25.07;54.76
78582;BME280;67878;46.242;5.974;2023-09-18T11:43:23;95245.63;;;25.08;54.96
78582;BME280;67878;46.242;5.974;2023-09-18T11:45:53;95245.44;;;25.10;54.55
78582;BME280;67878;46.242;5.974;2023-09-18T11:48:20;95242.81;;;25.10;54.66
78582;BME280;67878;46.242;5.974;2023-09-18T11:50:47;95257.84;;;25.09;54.58
78582;BME280;67878;46.242;5.974;2023-09-18T11:53:17;95267.59;;;25.09;54.27
78582;BME280;67878;46.242;5.974;2023-09-18T11:55:46;95264.94;;;25.09;54.75
78582;BME280;67878;46.242;5.974;2023-09-18T11:58:12;95281.63;;;25.09;54.58
78582;BME280;67878;46.242;5.974;2023-09-18T12:00:38;95265.78;;;25.09;54.78
78582;BME280;67878;46.242;5.974;2023-09-18T12:03:16;95249.09;;;25.09;54.34
78582;BME280;67878;46.242;5.974;2023-09-18T12:05:44;95256.03;;;25.10;54.36
78582;BME280;67878;46.242;5.974;2023-09-18T12:08:11;95259.47;;;25.10;54.50
78582;BME280;67878;46.242;5.974;2023-09-18T12:10:36;95265.78;;;25.09;54.34
78582;BME280;67878;46.242;5.974;2023-09-18T12:13:06;95263.13;;;25.09;54.57
78582;BME280;67878;46.242;5.974;2023-09-18T12:15:34;95263.13;;;25.09;54.46
78582;BME280;67878;46.242;5.974;2023-09-18T12:18:10;95277.56;;;25.07;53.34
78582;BME280;67878;46.242;5.974;2023-09-18T12:20:37;95269.19;;;24.96;53.52
78582;BME280;67878;46.242;5.974;2023-09-18T12:23:03;95277.66;;;24.85;53.52
78582;BME280;67878;46.242;5.974;2023-09-18T12:25:29;95277.25;;;24.81;53.64
78582;BME280;67878;46.242;5.974;2023-09-18T12:27:55;95265.88;;;24.81;53.48
78582;BME280;67878;46.242;5.974;2023-09-18T12:30:22;95277.88;;;24.83;53.92
78582;BME280;67878;46.242;5.974;2023-09-18T12:32:49;95275.25;;;24.83;54.36
78582;BME280;67878;46.242;5.974;2023-09-18T12:35:15;95278.47;;;24.86;54.47
78582;BME280;67878;46.242;5.974;2023-09-18T12:37:41;95269.56;;;24.87;54.49
78582;BME280;67878;46.242;5.974;2023-09-18T12:40:30;95261.41;;;24.88;54.55
78582;BME280;67878;46.242;5.974;2023-09-18T12:43:03;95258.78;;;24.88;54.23
78582;BME280;67878;46.242;5.974;2023-09-18T12:45:31;95254.31;;;24.89;54.18
78582;BME280;67878;46.242;5.974;2023-09-18T12:47:57;95260.44;;;24.89;54.46
78582;BME280;67878;46.242;5.974;2023-09-18T12:50:24;95258.78;;;24.88;54.39
78582;BME280;67878;46.242;5.974;2023-09-18T12:52:50;95271.81;;;24.90;54.29
78582;BME280;67878;46.242;5.974;2023-09-18T12:55:24;95276.47;;;24.88;54.22
78582;BME280;67878;46.242;5.974;2023-09-18T12:57:51;95268.53;;;24.88;54.11
78582;BME280;67878;46.242;5.974;2023-09-18T13:00:21;95280.72;;;24.89;53.80
78582;BME280;67878;46.242;5.974;2023-09-18T13:02:51;95285.19;;;24.88;53.56
78582;BME280;67878;46.242;5.974;2023-09-18T13:05:23;95289.84;;;24.86;53.93
78582;BME280;67878;46.242;5.974;2023-09-18T13:07:52;95282.94;;;24.85;53.75
78582;BME280;67878;46.242;5.974;2023-09-18T13:10:18;95278.47;;;24.86;53.98
78582;BME280;67878;46.242;5.974;2023-09-18T13:12:51;95263.25;;;24.88;54.04
78582;BME280;67878;46.242;5.974;2023-09-18T13:15:31;95256.94;;;24.89;54.15
78582;BME280;67878;46.242;5.974;2023-09-18T13:17:59;95237.47;;;24.90;54.22